sensor_id;sensor_type;location;lat;lon;timestamp;temperature;humidity
48998;DHT22;34807;51.456;7.244;2023-07-20T00:01:21;19.90;76.30
48998;DHT22;34807;51.456;7.244;2023-07-20T00:03:47;19.90;76.30
48998;DHT22;34807;51.456;7.244;2023-07-20T00:06:20;19.90;76.00
48998;DHT22;34807;51.456;7.244;2023-07-20T00:08:45;19.90;76.40
48998;DHT22;34807;51.456;7.244;2023-07-20T00:11:11;19.90;76.40
48998;DHT22;34807;51.456;7.244;2023-07-20T00:13:39;19.90;76.30
48998;DHT22;34807;51.456;7.244;2023-07-20T00:16:04;19.80;76.40
48998;DHT22;34807;51.456;7.244;2023-07-20T00:18:30;19.90;76.40
48998;DHT22;34807;51.456;7.244;2023-07-20T00:20:55;19.80;76.30
48998;DHT22;34807;51.456;7.244;2023-07-20T00:23:21;19.80;76.40
48998;DHT22;34807;51.456;7.244;2023-07-20T00:25:48;19.80;76.90
48998;DHT22;34807;51.456;7.244;2023-07-20T00:28:13;19.80;76.30
48998;DHT22;34807;51.456;7.244;2023-07-20T00:30:39;19.80;76.40
48998;DHT22;34807;51.456;7.244;2023-07-20T00:33:06;19.80;76.40
48998;DHT22;34807;51.456;7.244;2023-07-20T00:35:32;19.80;76.40
48998;DHT22;34807;51.456;7.244;2023-07-20T00:37:57;19.80;76.30
48998;DHT22;34807;51.456;7.244;2023-07-20T00:40:23;19.80;76.30
48998;DHT22;34807;51.456;7.244;2023-07-20T00:42:48;19.70;77.00
48998;DHT22;34807;51.456;7.244;2023-07-20T00:45:14;19.70;76.40
48998;DHT22;34807;51.456;7.244;2023-07-20T00:47:39;19.70;76.40
48998;DHT22;34807;51.456;7.244;2023-07-20T00:50:05;19.70;76.40
48998;DHT22;34807;51.456;7.244;2023-07-20T00:52:31;19.70;76.50
48998;DHT22;34807;51.456;7.244;2023-07-20T00:54:57;19.70;76.60
48998;DHT22;34807;51.456;7.244;2023-07-20T00:57:23;19.70;76.40
48998;DHT22;34807;51.456;7.244;2023-07-20T00:59:50;19.70;76.60
48998;DHT22;34807;51.456;7.244;2023-07-20T01:02:16;19.70;76.60
48998;DHT22;34807;51.456;7.244;2023-07-20T01:04:41;19.70;76.50
48998;DHT22;34807;51.456;7.244;2023-07-20T01:14:26;19.60;76.60
48998;DHT22;34807;51.456;7.244;2023-07-20T01:16:52;19.60;76.60
48998;DHT22;34807;51.456;7.244;2023-07-20T01:19:17;19.60;76.70
48998;DHT22;34807;51.456;7.244;2023-07-20T01:32:05;19.50;76.90
48998;DHT22;34807;51.456;7.244;2023-07-20T01:34:32;19.50;77.00
48998;DHT22;34807;51.456;7.244;2023-07-20T01:37:00;19.50;76.90
48998;DHT22;34807;51.456;7.244;2023-07-20T01:39:26;19.50;76.90
48998;DHT22;34807;51.456;7.244;2023-07-20T01:41:52;19.40;76.90
48998;DHT22;34807;51.456;7.244;2023-07-20T01:44:18;19.40;76.90
48998;DHT22;34807;51.456;7.244;2023-07-20T01:46:43;19.40;77.00
48998;DHT22;34807;51.456;7.244;2023-07-20T01:49:09;19.40;77.10
48998;DHT22;34807;51.456;7.244;2023-07-20T01:51:34;19.40;77.70
48998;DHT22;34807;51.456;7.244;2023-07-20T01:54:00;19.40;77.10
48998;DHT22;34807;51.456;7.244;2023-07-20T01:56:26;19.40;76.90
48998;DHT22;34807;51.456;7.244;2023-07-20T01:58:51;19.40;77.10
48998;DHT22;34807;51.456;7.244;2023-07-20T02:01:17;19.30;77.10
48998;DHT22;34807;51.456;7.244;2023-07-20T02:03:42;19.30;77.10
48998;DHT22;34807;51.456;7.244;2023-07-20T02:06:08;19.30;77.30
48998;DHT22;34807;51.456;7.244;2023-07-20T02:08:33;19.30;77.30
48998;DHT22;34807;51.456;7.244;2023-07-20T02:10:58;19.30;77.30
48998;DHT22;34807;51.456;7.244;2023-07-20T02:13:24;19.20;77.30
48998;DHT22;34807;51.456;7.244;2023-07-20T02:15:50;19.30;77.30
48998;DHT22;34807;51.456;7.244;2023-07-20T02:18:16;19.20;77.30
48998;DHT22;34807;51.456;7.244;2023-07-20T02:20:42;19.20;77.30
48998;DHT22;34807;51.456;7.244;2023-07-20T02:23:07;19.20;77.40
48998;DHT22;34807;51.456;7.244;2023-07-20T02:25:33;19.20;77.30
48998;DHT22;34807;51.456;7.244;2023-07-20T02:27:58;19.20;77.30
48998;DHT22;34807;51.456;7.244;2023-07-20T02:30:24;19.20;77.30
48998;DHT22;34807;51.456;7.244;2023-07-20T02:32:49;19.20;77.50
48998;DHT22;34807;51.456;7.244;2023-07-20T02:35:15;19.20;77.40
48998;DHT22;34807;51.456;7.244;2023-07-20T02:37:41;19.10;77.30
48998;DHT22;34807;51.456;7.244;2023-07-20T02:40:06;19.20;77.40
48998;DHT22;34807;51.456;7.244;2023-07-20T02:42:32;19.10;77.40
48998;DHT22;34807;51.456;7.244;2023-07-20T02:44:58;19.10;77.50
48998;DHT22;34807;51.456;7.244;2023-07-20T02:47:23;19.10;77.50
48998;DHT22;34807;51.456;7.244;2023-07-20T02:49:49;19.10;77.50
48998;DHT22;34807;51.456;7.244;2023-07-20T02:52:14;19.10;77.70
48998;DHT22;34807;51.456;7.244;2023-07-20T02:54:40;19.10;78.30
48998;DHT22;34807;51.456;7.244;2023-07-20T02:57:05;19.10;77.60
48998;DHT22;34807;51.456;7.244;2023-07-20T02:59:31;19.10;77.70
48998;DHT22;34807;51.456;7.244;2023-07-20T03:01:56;19.10;77.80
48998;DHT22;34807;51.456;7.244;2023-07-20T03:04:23;19.10;77.80
48998;DHT22;34807;51.456;7.244;2023-07-20T03:06:49;19.10;77.80
48998;DHT22;34807;51.456;7.244;2023-07-20T03:09:14;19.10;78.10
48998;DHT22;34807;51.456;7.244;2023-07-20T03:11:40;19.00;77.90
48998;DHT22;34807;51.456;7.244;2023-07-20T03:14:06;19.00;78.00
48998;DHT22;34807;51.456;7.244;2023-07-20T03:16:32;19.10;78.30
48998;DHT22;34807;51.456;7.244;2023-07-20T03:18:59;19.10;78.10
48998;DHT22;34807;51.456;7.244;2023-07-20T03:21:25;19.00;78.50
48998;DHT22;34807;51.456;7.244;2023-07-20T03:23:51;19.00;78.00
48998;DHT22;34807;51.456;7.244;2023-07-20T03:26:17;19.00;78.10
48998;DHT22;34807;51.456;7.244;2023-07-20T03:28:42;19.00;78.10
48998;DHT22;34807;51.456;7.244;2023-07-20T03:31:08;19.00;78.10
48998;DHT22;34807;51.456;7.244;2023-07-20T03:33:33;19.00;78.30
48998;DHT22;34807;51.456;7.244;2023-07-20T03:35:59;19.00;78.40
48998;DHT22;34807;51.456;7.244;2023-07-20T03:38:25;18.90;78.20
48998;DHT22;34807;51.456;7.244;2023-07-20T03:40:55;18.90;78.10
48998;DHT22;34807;51.456;7.244;2023-07-20T03:43:22;18.90;78.50
48998;DHT22;34807;51.456;7.244;2023-07-20T03:45:47;18.90;78.50
48998;DHT22;34807;51.456;7.244;2023-07-20T03:48:14;18.90;78.40
48998;DHT22;34807;51.456;7.244;2023-07-20T03:50:40;18.90;78.60
48998;DHT22;34807;51.456;7.244;2023-07-20T03:53:05;18.90;78.50
48998;DHT22;34807;51.456;7.244;2023-07-20T03:55:31;18.90;78.40
48998;DHT22;34807;51.456;7.244;2023-07-20T03:57:56;18.90;78.50
48998;DHT22;34807;51.456;7.244;2023-07-20T04:00:22;18.90;78.50
48998;DHT22;34807;51.456;7.244;2023-07-20T04:02:48;18.90;78.50
48998;DHT22;34807;51.456;7.244;2023-07-20T04:05:13;18.90;78.60
48998;DHT22;34807;51.456;7.244;2023-07-20T04:07:39;18.90;78.60
48998;DHT22;34807;51.456;7.244;2023-07-20T04:10:04;18.90;78.40
48998;DHT22;34807;51.456;7.244;2023-07-20T04:12:30;18.90;78.60
48998;DHT22;34807;51.456;7.244;2023-07-20T04:14:55;18.80;78.60
48998;DHT22;34807;51.456;7.244;2023-07-20T04:17:21;18.90;78.60
48998;DHT22;34807;51.456;7.244;2023-07-20T04:19:46;18.90;78.60
48998;DHT22;34807;51.456;7.244;2023-07-20T04:22:13;18.90;78.70
48998;DHT22;34807;51.456;7.244;2023-07-20T04:24:43;18.90;78.60
48998;DHT22;34807;51.456;7.244;2023-07-20T04:27:09;18.80;78.60
48998;DHT22;34807;51.456;7.244;2023-07-20T04:29:34;18.80;78.60
48998;DHT22;34807;51.456;7.244;2023-07-20T04:31:59;18.90;78.70
48998;DHT22;34807;51.456;7.244;2023-07-20T04:34:25;18.80;78.80
48998;DHT22;34807;51.456;7.244;2023-07-20T04:36:50;18.80;78.90
48998;DHT22;34807;51.456;7.244;2023-07-20T04:39:16;18.80;79.00
48998;DHT22;34807;51.456;7.244;2023-07-20T04:41:42;18.80;78.90
48998;DHT22;34807;51.456;7.244;2023-07-20T04:44:07;18.80;78.90
48998;DHT22;34807;51.456;7.244;2023-07-20T04:46:33;18.80;78.90
48998;DHT22;34807;51.456;7.244;2023-07-20T04:48:58;18.80;78.90
48998;DHT22;34807;51.456;7.244;2023-07-20T04:51:24;18.80;79.00
48998;DHT22;34807;51.456;7.244;2023-07-20T04:53:50;18.80;79.00
48998;DHT22;34807;51.456;7.244;2023-07-20T04:56:15;18.80;79.00
48998;DHT22;34807;51.456;7.244;2023-07-20T04:58:40;18.80;79.10
48998;DHT22;34807;51.456;7.244;2023-07-20T05:01:07;18.80;79.00
48998;DHT22;34807;51.456;7.244;2023-07-20T05:03:33;18.80;79.10
48998;DHT22;34807;51.456;7.244;2023-07-20T05:05:58;18.80;79.10
48998;DHT22;34807;51.456;7.244;2023-07-20T05:08:23;18.80;79.10
48998;DHT22;34807;51.456;7.244;2023-07-20T05:10:49;18.90;79.10
48998;DHT22;34807;51.456;7.244;2023-07-20T05:13:15;18.90;79.00
48998;DHT22;34807;51.456;7.244;2023-07-20T05:15:40;18.90;79.00
48998;DHT22;34807;51.456;7.244;2023-07-20T05:18:06;18.90;78.90
48998;DHT22;34807;51.456;7.244;2023-07-20T05:20:31;18.90;79.10
48998;DHT22;34807;51.456;7.244;2023-07-20T05:22:58;18.90;79.10
48998;DHT22;34807;51.456;7.244;2023-07-20T05:25:24;18.90;79.10
48998;DHT22;34807;51.456;7.244;2023-07-20T05:27:50;18.90;79.20
48998;DHT22;34807;51.456;7.244;2023-07-20T05:30:15;18.90;79.20
48998;DHT22;34807;51.456;7.244;2023-07-20T05:32:41;18.90;79.10
48998;DHT22;34807;51.456;7.244;2023-07-20T05:35:07;18.90;79.20
48998;DHT22;34807;51.456;7.244;2023-07-20T05:37:33;18.90;79.20
48998;DHT22;34807;51.456;7.244;2023-07-20T05:39:59;18.90;79.20
48998;DHT22;34807;51.456;7.244;2023-07-20T05:42:24;18.90;79.30
48998;DHT22;34807;51.456;7.244;2023-07-20T05:44:50;19.00;79.20
48998;DHT22;34807;51.456;7.244;2023-07-20T05:47:18;19.00;79.40
48998;DHT22;34807;51.456;7.244;2023-07-20T05:49:43;18.90;79.30
48998;DHT22;34807;51.456;7.244;2023-07-20T05:52:09;19.00;79.30
48998;DHT22;34807;51.456;7.244;2023-07-20T05:54:34;18.90;79.20
48998;DHT22;34807;51.456;7.244;2023-07-20T05:57:00;19.00;79.30
48998;DHT22;34807;51.456;7.244;2023-07-20T05:59:26;19.00;79.40
48998;DHT22;34807;51.456;7.244;2023-07-20T06:01:54;19.00;79.30
48998;DHT22;34807;51.456;7.244;2023-07-20T06:04:20;19.00;79.40
48998;DHT22;34807;51.456;7.244;2023-07-20T06:06:45;19.00;79.40
48998;DHT22;34807;51.456;7.244;2023-07-20T06:09:11;19.00;79.40
48998;DHT22;34807;51.456;7.244;2023-07-20T06:11:38;19.10;79.40
48998;DHT22;34807;51.456;7.244;2023-07-20T06:14:03;19.10;79.40
48998;DHT22;34807;51.456;7.244;2023-07-20T06:16:29;19.10;79.40
48998;DHT22;34807;51.456;7.244;2023-07-20T06:18:54;19.10;79.40
48998;DHT22;34807;51.456;7.244;2023-07-20T06:21:20;19.10;79.40
48998;DHT22;34807;51.456;7.244;2023-07-20T06:23:45;19.10;79.70
48998;DHT22;34807;51.456;7.244;2023-07-20T06:26:11;19.10;80.10
48998;DHT22;34807;51.456;7.244;2023-07-20T06:28:37;19.10;79.60
48998;DHT22;34807;51.456;7.244;2023-07-20T06:31:02;19.10;79.40
48998;DHT22;34807;51.456;7.244;2023-07-20T06:33:28;19.10;79.20
48998;DHT22;34807;51.456;7.244;2023-07-20T06:35:53;19.10;79.30
48998;DHT22;34807;51.456;7.244;2023-07-20T06:38:19;19.20;79.30
48998;DHT22;34807;51.456;7.244;2023-07-20T06:40:47;19.20;79.50
48998;DHT22;34807;51.456;7.244;2023-07-20T06:43:13;19.10;79.40
48998;DHT22;34807;51.456;7.244;2023-07-20T06:45:39;19.10;79.40
48998;DHT22;34807;51.456;7.244;2023-07-20T06:48:04;19.10;79.30
48998;DHT22;34807;51.456;7.244;2023-07-20T06:50:30;19.10;79.20
48998;DHT22;34807;51.456;7.244;2023-07-20T06:52:55;19.10;79.30
48998;DHT22;34807;51.456;7.244;2023-07-20T06:55:21;19.10;79.20
48998;DHT22;34807;51.456;7.244;2023-07-20T06:57:46;19.10;79.30
48998;DHT22;34807;51.456;7.244;2023-07-20T07:00:12;19.10;79.40
48998;DHT22;34807;51.456;7.244;2023-07-20T07:02:38;19.10;79.30
48998;DHT22;34807;51.456;7.244;2023-07-20T07:05:03;19.10;79.30
48998;DHT22;34807;51.456;7.244;2023-07-20T07:07:29;19.10;79.20
48998;DHT22;34807;51.456;7.244;2023-07-20T07:09:54;19.20;79.30
48998;DHT22;34807;51.456;7.244;2023-07-20T07:12:20;19.20;79.40
48998;DHT22;34807;51.456;7.244;2023-07-20T07:14:45;19.20;79.30
48998;DHT22;34807;51.456;7.244;2023-07-20T07:17:11;19.20;79.50
48998;DHT22;34807;51.456;7.244;2023-07-20T07:19:36;19.20;79.30
48998;DHT22;34807;51.456;7.244;2023-07-20T07:22:03;19.10;79.30
48998;DHT22;34807;51.456;7.244;2023-07-20T07:24:28;19.20;79.50
48998;DHT22;34807;51.456;7.244;2023-07-20T07:27:01;19.20;79.20
48998;DHT22;34807;51.456;7.244;2023-07-20T07:29:27;19.20;79.30
48998;DHT22;34807;51.456;7.244;2023-07-20T07:31:52;19.20;79.30
48998;DHT22;34807;51.456;7.244;2023-07-20T07:34:18;19.20;79.20
48998;DHT22;34807;51.456;7.244;2023-07-20T07:36:43;19.20;79.30
48998;DHT22;34807;51.456;7.244;2023-07-20T07:39:09;19.20;79.10
48998;DHT22;34807;51.456;7.244;2023-07-20T07:41:35;19.20;79.10
48998;DHT22;34807;51.456;7.244;2023-07-20T07:44:01;19.30;79.20
48998;DHT22;34807;51.456;7.244;2023-07-20T07:46:26;19.30;79.10
48998;DHT22;34807;51.456;7.244;2023-07-20T07:48:52;19.30;79.10
48998;DHT22;34807;51.456;7.244;2023-07-20T07:51:18;19.30;79.00
48998;DHT22;34807;51.456;7.244;2023-07-20T07:53:45;19.40;78.90
48998;DHT22;34807;51.456;7.244;2023-07-20T07:56:10;19.40;78.80
48998;DHT22;34807;51.456;7.244;2023-07-20T07:58:36;19.40;78.70
48998;DHT22;34807;51.456;7.244;2023-07-20T08:01:02;19.50;78.50
48998;DHT22;34807;51.456;7.244;2023-07-20T08:03:28;19.60;78.40
48998;DHT22;34807;51.456;7.244;2023-07-20T08:05:54;19.60;78.40
48998;DHT22;34807;51.456;7.244;2023-07-20T08:08:20;19.70;78.40
48998;DHT22;34807;51.456;7.244;2023-07-20T08:10:46;19.70;78.10
48998;DHT22;34807;51.456;7.244;2023-07-20T08:13:12;19.80;78.00
48998;DHT22;34807;51.456;7.244;2023-07-20T08:15:38;19.80;77.80
48998;DHT22;34807;51.456;7.244;2023-07-20T08:18:03;19.90;77.70
48998;DHT22;34807;51.456;7.244;2023-07-20T08:20:29;19.90;77.70
48998;DHT22;34807;51.456;7.244;2023-07-20T08:22:55;20.00;77.50
48998;DHT22;34807;51.456;7.244;2023-07-20T08:25:21;20.00;77.50
48998;DHT22;34807;51.456;7.244;2023-07-20T08:27:46;20.00;77.60
48998;DHT22;34807;51.456;7.244;2023-07-20T08:30:12;19.90;77.50
48998;DHT22;34807;51.456;7.244;2023-07-20T08:32:38;19.90;77.60
48998;DHT22;34807;51.456;7.244;2023-07-20T08:35:04;19.90;77.70
48998;DHT22;34807;51.456;7.244;2023-07-20T08:37:29;19.90;77.70
48998;DHT22;34807;51.456;7.244;2023-07-20T08:39:55;19.80;77.70
48998;DHT22;34807;51.456;7.244;2023-07-20T08:42:20;19.80;77.80
48998;DHT22;34807;51.456;7.244;2023-07-20T08:44:48;19.90;77.70
48998;DHT22;34807;51.456;7.244;2023-07-20T08:47:13;19.90;77.60
48998;DHT22;34807;51.456;7.244;2023-07-20T08:49:40;19.90;77.50
48998;DHT22;34807;51.456;7.244;2023-07-20T08:52:06;19.90;77.10
48998;DHT22;34807;51.456;7.244;2023-07-20T08:54:32;19.90;77.20
48998;DHT22;34807;51.456;7.244;2023-07-20T08:57:00;20.00;76.90
48998;DHT22;34807;51.456;7.244;2023-07-20T08:59:26;20.00;76.80
48998;DHT22;34807;51.456;7.244;2023-07-20T09:01:54;20.00;76.20
48998;DHT22;34807;51.456;7.244;2023-07-20T09:04:20;20.00;76.90
48998;DHT22;34807;51.456;7.244;2023-07-20T09:06:46;20.00;76.60
48998;DHT22;34807;51.456;7.244;2023-07-20T09:09:13;20.10;76.60
48998;DHT22;34807;51.456;7.244;2023-07-20T09:11:38;20.10;76.20
48998;DHT22;34807;51.456;7.244;2023-07-20T09:14:05;20.20;76.20
48998;DHT22;34807;51.456;7.244;2023-07-20T09:16:31;20.20;76.00
48998;DHT22;34807;51.456;7.244;2023-07-20T09:18:59;20.30;75.90
48998;DHT22;34807;51.456;7.244;2023-07-20T09:21:28;20.40;75.70
48998;DHT22;34807;51.456;7.244;2023-07-20T09:23:54;20.30;75.80
48998;DHT22;34807;51.456;7.244;2023-07-20T09:26:21;20.30;76.10
48998;DHT22;34807;51.456;7.244;2023-07-20T09:28:56;20.20;76.10
48998;DHT22;34807;51.456;7.244;2023-07-20T09:31:22;20.20;76.40
48998;DHT22;34807;51.456;7.244;2023-07-20T09:33:48;20.20;76.30
48998;DHT22;34807;51.456;7.244;2023-07-20T09:36:13;20.30;75.90
48998;DHT22;34807;51.456;7.244;2023-07-20T09:38:40;20.40;75.80
48998;DHT22;34807;51.456;7.244;2023-07-20T09:41:06;20.40;75.60
48998;DHT22;34807;51.456;7.244;2023-07-20T09:43:32;20.50;75.20
48998;DHT22;34807;51.456;7.244;2023-07-20T09:45:59;20.60;75.00
48998;DHT22;34807;51.456;7.244;2023-07-20T09:48:25;20.60;75.00
48998;DHT22;34807;51.456;7.244;2023-07-20T09:50:51;20.70;74.80
48998;DHT22;34807;51.456;7.244;2023-07-20T09:53:17;20.70;74.90
48998;DHT22;34807;51.456;7.244;2023-07-20T09:55:46;20.60;74.60
48998;DHT22;34807;51.456;7.244;2023-07-20T09:58:13;20.60;74.50
48998;DHT22;34807;51.456;7.244;2023-07-20T10:00:39;20.60;74.80
48998;DHT22;34807;51.456;7.244;2023-07-20T10:03:05;20.70;74.90
48998;DHT22;34807;51.456;7.244;2023-07-20T10:05:34;20.60;74.20
48998;DHT22;34807;51.456;7.244;2023-07-20T10:08:01;20.70;74.50
48998;DHT22;34807;51.456;7.244;2023-07-20T10:10:27;20.80;74.30
48998;DHT22;34807;51.456;7.244;2023-07-20T10:12:54;20.80;74.10
48998;DHT22;34807;51.456;7.244;2023-07-20T10:15:43;20.80;74.00
48998;DHT22;34807;51.456;7.244;2023-07-20T10:18:12;20.90;73.60
48998;DHT22;34807;51.456;7.244;2023-07-20T10:20:39;21.00;73.30
48998;DHT22;34807;51.456;7.244;2023-07-20T10:23:06;21.00;73.20
48998;DHT22;34807;51.456;7.244;2023-07-20T10:25:32;21.00;73.60
48998;DHT22;34807;51.456;7.244;2023-07-20T10:28:03;21.00;73.10
48998;DHT22;34807;51.456;7.244;2023-07-20T10:30:29;21.00;72.40
48998;DHT22;34807;51.456;7.244;2023-07-20T10:32:55;21.00;72.70
48998;DHT22;34807;51.456;7.244;2023-07-20T10:35:21;21.00;72.00
48998;DHT22;34807;51.456;7.244;2023-07-20T10:37:51;21.10;72.20
48998;DHT22;34807;51.456;7.244;2023-07-20T10:43:03;21.20;72.70
48998;DHT22;34807;51.456;7.244;2023-07-20T10:48:13;21.40;72.20
48998;DHT22;34807;51.456;7.244;2023-07-20T10:50:40;21.50;71.60
48998;DHT22;34807;51.456;7.244;2023-07-20T10:53:13;21.50;71.20
48998;DHT22;34807;51.456;7.244;2023-07-20T10:55:39;21.60;71.50
48998;DHT22;34807;51.456;7.244;2023-07-20T10:58:09;21.70;71.40
48998;DHT22;34807;51.456;7.244;2023-07-20T11:00:35;21.70;70.80
48998;DHT22;34807;51.456;7.244;2023-07-20T11:03:01;21.70;70.50
48998;DHT22;34807;51.456;7.244;2023-07-20T11:05:39;21.60;71.40
48998;DHT22;34807;51.456;7.244;2023-07-20T11:08:07;21.50;71.40
48998;DHT22;34807;51.456;7.244;2023-07-20T11:10:34;21.50;72.10
48998;DHT22;34807;51.456;7.244;2023-07-20T11:13:19;21.60;71.90
48998;DHT22;34807;51.456;7.244;2023-07-20T11:15:45;21.60;71.40
48998;DHT22;34807;51.456;7.244;2023-07-20T11:18:11;21.80;71.30
48998;DHT22;34807;51.456;7.244;2023-07-20T11:20:37;21.80;70.70
48998;DHT22;34807;51.456;7.244;2023-07-20T11:23:03;21.90;70.50
48998;DHT22;34807;51.456;7.244;2023-07-20T11:25:35;22.00;70.20
48998;DHT22;34807;51.456;7.244;2023-07-20T11:28:01;22.10;69.90
48998;DHT22;34807;51.456;7.244;2023-07-20T11:30:26;22.20;70.20
48998;DHT22;34807;51.456;7.244;2023-07-20T11:32:52;22.30;69.80
48998;DHT22;34807;51.456;7.244;2023-07-20T11:35:17;22.40;69.80
48998;DHT22;34807;51.456;7.244;2023-07-20T11:37:43;22.50;69.60
48998;DHT22;34807;51.456;7.244;2023-07-20T11:40:09;22.60;69.30
48998;DHT22;34807;51.456;7.244;2023-07-20T11:42:34;22.70;69.30
48998;DHT22;34807;51.456;7.244;2023-07-20T11:45:02;22.70;69.40
48998;DHT22;34807;51.456;7.244;2023-07-20T11:47:30;22.80;68.90
48998;DHT22;34807;51.456;7.244;2023-07-20T11:49:55;22.80;69.40
48998;DHT22;34807;51.456;7.244;2023-07-20T11:52:27;22.90;69.20
48998;DHT22;34807;51.456;7.244;2023-07-20T11:54:53;22.90;69.30
48998;DHT22;34807;51.456;7.244;2023-07-20T11:57:19;22.80;69.50
48998;DHT22;34807;51.456;7.244;2023-07-20T11:59:57;22.80;69.50
48998;DHT22;34807;51.456;7.244;2023-07-20T12:02:24;22.90;69.30
48998;DHT22;34807;51.456;7.244;2023-07-20T12:04:53;22.90;68.70
48998;DHT22;34807;51.456;7.244;2023-07-20T12:07:19;23.00;68.70
48998;DHT22;34807;51.456;7.244;2023-07-20T12:09:45;23.10;67.60
48998;DHT22;34807;51.456;7.244;2023-07-20T12:12:11;23.10;67.90
48998;DHT22;34807;51.456;7.244;2023-07-20T12:14:37;23.10;68.30
48998;DHT22;34807;51.456;7.244;2023-07-20T12:17:02;23.10;68.30
48998;DHT22;34807;51.456;7.244;2023-07-20T12:19:28;23.20;67.40
48998;DHT22;34807;51.456;7.244;2023-07-20T12:21:56;23.30;66.90
48998;DHT22;34807;51.456;7.244;2023-07-20T12:24:22;23.40;66.90
48998;DHT22;34807;51.456;7.244;2023-07-20T12:26:48;23.40;66.50
48998;DHT22;34807;51.456;7.244;2023-07-20T12:29:13;23.50;66.00
48998;DHT22;34807;51.456;7.244;2023-07-20T12:31:39;23.60;67.00
48998;DHT22;34807;51.456;7.244;2023-07-20T12:34:04;23.40;66.80
48998;DHT22;34807;51.456;7.244;2023-07-20T12:36:30;23.40;67.00
48998;DHT22;34807;51.456;7.244;2023-07-20T12:38:56;23.50;66.90
48998;DHT22;34807;51.456;7.244;2023-07-20T12:41:23;23.50;66.10
48998;DHT22;34807;51.456;7.244;2023-07-20T12:43:49;23.50;66.50
48998;DHT22;34807;51.456;7.244;2023-07-20T12:46:15;23.50;66.70
48998;DHT22;34807;51.456;7.244;2023-07-20T12:48:40;23.50;66.50
48998;DHT22;34807;51.456;7.244;2023-07-20T12:51:07;23.60;66.80
48998;DHT22;34807;51.456;7.244;2023-07-20T12:53:33;23.70;65.70
48998;DHT22;34807;51.456;7.244;2023-07-20T12:55:59;23.80;65.30
48998;DHT22;34807;51.456;7.244;2023-07-20T12:58:25;23.80;66.10
48998;DHT22;34807;51.456;7.244;2023-07-20T13:00:50;23.90;66.10
48998;DHT22;34807;51.456;7.244;2023-07-20T13:03:16;23.90;65.50
48998;DHT22;34807;51.456;7.244;2023-07-20T13:05:44;23.90;65.90
48998;DHT22;34807;51.456;7.244;2023-07-20T13:08:09;23.90;65.20
48998;DHT22;34807;51.456;7.244;2023-07-20T13:10:35;23.80;66.00
48998;DHT22;34807;51.456;7.244;2023-07-20T13:13:00;23.80;65.40
48998;DHT22;34807;51.456;7.244;2023-07-20T13:15:30;23.80;65.20
48998;DHT22;34807;51.456;7.244;2023-07-20T13:17:58;23.70;66.00
48998;DHT22;34807;51.456;7.244;2023-07-20T13:20:24;23.70;65.90
48998;DHT22;34807;51.456;7.244;2023-07-20T13:22:50;23.70;65.50
48998;DHT22;34807;51.456;7.244;2023-07-20T13:25:16;23.70;66.10
48998;DHT22;34807;51.456;7.244;2023-07-20T13:27:43;23.70;65.90
48998;DHT22;34807;51.456;7.244;2023-07-20T13:30:09;23.60;65.60
48998;DHT22;34807;51.456;7.244;2023-07-20T13:32:38;23.60;65.80
48998;DHT22;34807;51.456;7.244;2023-07-20T13:35:04;23.60;65.60
48998;DHT22;34807;51.456;7.244;2023-07-20T13:37:29;23.60;65.20
48998;DHT22;34807;51.456;7.244;2023-07-20T13:39:55;23.60;65.20
48998;DHT22;34807;51.456;7.244;2023-07-20T13:42:20;23.60;64.70
48998;DHT22;34807;51.456;7.244;2023-07-20T13:44:49;23.70;65.00
48998;DHT22;34807;51.456;7.244;2023-07-20T13:47:15;23.60;64.70
48998;DHT22;34807;51.456;7.244;2023-07-20T13:49:40;23.60;64.30
48998;DHT22;34807;51.456;7.244;2023-07-20T13:52:06;23.60;63.90
48998;DHT22;34807;51.456;7.244;2023-07-20T13:54:32;23.60;64.40
48998;DHT22;34807;51.456;7.244;2023-07-20T13:56:57;23.60;64.40
48998;DHT22;34807;51.456;7.244;2023-07-20T13:59:23;23.60;61.50
48998;DHT22;34807;51.456;7.244;2023-07-20T14:01:49;23.60;63.80
48998;DHT22;34807;51.456;7.244;2023-07-20T14:04:14;23.60;64.10
48998;DHT22;34807;51.456;7.244;2023-07-20T14:06:40;23.60;63.90
48998;DHT22;34807;51.456;7.244;2023-07-20T14:09:06;23.70;64.00
48998;DHT22;34807;51.456;7.244;2023-07-20T14:11:31;23.70;64.00
48998;DHT22;34807;51.456;7.244;2023-07-20T14:13:57;23.60;63.90
48998;DHT22;34807;51.456;7.244;2023-07-20T14:16:23;23.70;63.00
48998;DHT22;34807;51.456;7.244;2023-07-20T14:18:49;23.70;63.50
48998;DHT22;34807;51.456;7.244;2023-07-20T14:21:15;23.70;63.30
48998;DHT22;34807;51.456;7.244;2023-07-20T14:23:41;23.60;63.60
48998;DHT22;34807;51.456;7.244;2023-07-20T14:26:07;23.60;63.60
48998;DHT22;34807;51.456;7.244;2023-07-20T14:28:34;23.70;63.30
48998;DHT22;34807;51.456;7.244;2023-07-20T14:30:59;23.70;63.30
48998;DHT22;34807;51.456;7.244;2023-07-20T14:33:25;23.60;63.50
48998;DHT22;34807;51.456;7.244;2023-07-20T14:35:51;23.60;63.90
48998;DHT22;34807;51.456;7.244;2023-07-20T14:38:16;23.60;63.30
48998;DHT22;34807;51.456;7.244;2023-07-20T14:40:42;23.60;62.70
48998;DHT22;34807;51.456;7.244;2023-07-20T14:43:07;23.60;63.30
48998;DHT22;34807;51.456;7.244;2023-07-20T14:45:33;23.60;63.20
48998;DHT22;34807;51.456;7.244;2023-07-20T14:47:58;23.70;63.30
48998;DHT22;34807;51.456;7.244;2023-07-20T14:50:24;23.60;63.00
48998;DHT22;34807;51.456;7.244;2023-07-20T14:52:50;23.70;62.80
48998;DHT22;34807;51.456;7.244;2023-07-20T14:55:15;23.80;61.00
48998;DHT22;34807;51.456;7.244;2023-07-20T14:57:41;24.00;58.70
48998;DHT22;34807;51.456;7.244;2023-07-20T15:00:06;24.10;58.80
48998;DHT22;34807;51.456;7.244;2023-07-20T15:02:36;24.10;59.50
48998;DHT22;34807;51.456;7.244;2023-07-20T15:05:02;24.10;60.20
48998;DHT22;34807;51.456;7.244;2023-07-20T15:07:28;24.00;60.20
48998;DHT22;34807;51.456;7.244;2023-07-20T15:09:53;24.00;60.70
48998;DHT22;34807;51.456;7.244;2023-07-20T15:12:19;24.00;60.80
48998;DHT22;34807;51.456;7.244;2023-07-20T15:14:54;24.00;61.20
48998;DHT22;34807;51.456;7.244;2023-07-20T15:17:27;24.00;61.00
48998;DHT22;34807;51.456;7.244;2023-07-20T15:19:52;24.00;60.90
48998;DHT22;34807;51.456;7.244;2023-07-20T15:22:18;24.00;61.50
48998;DHT22;34807;51.456;7.244;2023-07-20T15:24:43;24.00;61.70
48998;DHT22;34807;51.456;7.244;2023-07-20T15:27:09;24.10;62.00
48998;DHT22;34807;51.456;7.244;2023-07-20T15:29:34;24.20;60.40
48998;DHT22;34807;51.456;7.244;2023-07-20T15:32:01;24.50;58.30
48998;DHT22;34807;51.456;7.244;2023-07-20T15:34:26;24.80;58.10
48998;DHT22;34807;51.456;7.244;2023-07-20T15:36:51;25.00;57.60
48998;DHT22;34807;51.456;7.244;2023-07-20T15:39:17;25.20;57.10
48998;DHT22;34807;51.456;7.244;2023-07-20T15:41:42;25.40;57.00
48998;DHT22;34807;51.456;7.244;2023-07-20T15:44:08;25.30;56.50
48998;DHT22;34807;51.456;7.244;2023-07-20T15:49:05;25.00;57.10